sensor_id;sensor_type;location;lat;lon;timestamp;pressure;altitude;pressure_sealevel;temperature;humidity
19576;BME280;41589;51.196;7.074;2023-01-10T00:04:48;98533.06;;;6.95;100.00
19576;BME280;41589;51.196;7.074;2023-01-10T00:09:48;98544.09;;;7.11;100.00
19576;BME280;41589;51.196;7.074;2023-01-10T00:14:49;98572.63;;;7.06;100.00
19576;BME280;41589;51.196;7.074;2023-01-10T00:19:49;98578.81;;;7.01;100.00
19576;BME280;41589;51.196;7.074;2023-01-10T00:24:50;98581.50;;;7.05;100.00
19576;BME280;41589;51.196;7.074;2023-01-10T00:29:50;98592.81;;;7.01;100.00
19576;BME280;41589;51.196;7.074;2023-01-10T00:34:51;98608.59;;;7.08;100.00
19576;BME280;41589;51.196;7.074;2023-01-10T00:39:51;98632.09;;;7.10;100.00
19576;BME280;41589;51.196;7.074;2023-01-10T00:44:52;98631.41;;;7.06;100.00
19576;BME280;41589;51.196;7.074;2023-01-10T00:49:52;98632.44;;;7.00;100.00
19576;BME280;41589;51.196;7.074;2023-01-10T00:54:53;98641.06;;;6.92;100.00
19576;BME280;41589;51.196;7.074;2023-01-10T00:59:53;98651.47;;;6.92;100.00
19576;BME280;41589;51.196;7.074;2023-01-10T01:04:53;98667.94;;;6.90;100.00
19576;BME280;41589;51.196;7.074;2023-01-10T01:09:54;98682.06;;;6.86;100.00
19576;BME280;41589;51.196;7.074;2023-01-10T01:15:13;98680.78;;;6.75;100.00
19576;BME280;41589;51.196;7.074;2023-01-10T01:20:13;98701.06;;;6.91;100.00
19576;BME280;41589;51.196;7.074;2023-01-10T01:25:14;98704.97;;;6.94;100.00
19576;BME280;41589;51.196;7.074;2023-01-10T01:30:14;98712.91;;;6.95;100.00
19576;BME280;41589;51.196;7.074;2023-01-10T01:35:15;98718.50;;;6.95;100.00
19576;BME280;41589;51.196;7.074;2023-01-10T01:40:21;98722.66;;;6.91;100.00
19576;BME280;41589;51.196;7.074;2023-01-10T01:55:35;98755.34;;;6.81;100.00
19576;BME280;41589;51.196;7.074;2023-01-10T02:00:37;98766.19;;;6.79;100.00
19576;BME280;41589;51.196;7.074;2023-01-10T02:05:39;98773.03;;;6.78;100.00
19576;BME280;41589;51.196;7.074;2023-01-10T02:10:44;98768.88;;;6.83;100.00
19576;BME280;41589;51.196;7.074;2023-01-10T02:15:48;98787.66;;;6.70;100.00
19576;BME280;41589;51.196;7.074;2023-01-10T02:21:07;98778.84;;;6.84;100.00
19576;BME280;41589;51.196;7.074;2023-01-10T02:26:38;98790.94;;;6.93;100.00
19576;BME280;41589;51.196;7.074;2023-01-10T02:47:47;98811.63;;;6.83;100.00
19576;BME280;41589;51.196;7.074;2023-01-10T02:52:47;98809.38;;;6.78;100.00
19576;BME280;41589;51.196;7.074;2023-01-10T03:03:28;98809.25;;;6.69;100.00
19576;BME280;41589;51.196;7.074;2023-01-10T03:08:45;98811.06;;;6.76;100.00
19576;BME280;41589;51.196;7.074;2023-01-10T03:13:56;98832.31;;;6.73;100.00
19576;BME280;41589;51.196;7.074;2023-01-10T03:19:03;98831.75;;;6.65;100.00
19576;BME280;41589;51.196;7.074;2023-01-10T03:24:11;98843.59;;;6.70;100.00
19576;BME280;41589;51.196;7.074;2023-01-10T03:29:18;98856.22;;;6.61;100.00
19576;BME280;41589;51.196;7.074;2023-01-10T03:34:21;98859.34;;;6.63;100.00
19576;BME280;41589;51.196;7.074;2023-01-10T03:39:27;98862.59;;;6.62;100.00
19576;BME280;41589;51.196;7.074;2023-01-10T03:44:36;98862.50;;;6.65;100.00
19576;BME280;41589;51.196;7.074;2023-01-10T03:49:45;98866.50;;;6.64;100.00
19576;BME280;41589;51.196;7.074;2023-01-10T03:54:47;98879.63;;;6.67;100.00
19576;BME280;41589;51.196;7.074;2023-01-10T03:59:52;98881.06;;;6.59;100.00
19576;BME280;41589;51.196;7.074;2023-01-10T04:04:52;98894.19;;;6.46;100.00
19576;BME280;41589;51.196;7.074;2023-01-10T04:09:53;98904.59;;;6.29;100.00
19576;BME280;41589;51.196;7.074;2023-01-10T04:14:53;98907.28;;;6.33;100.00
19576;BME280;41589;51.196;7.074;2023-01-10T04:19:54;98929.50;;;6.40;100.00
19576;BME280;41589;51.196;7.074;2023-01-10T04:24:54;98928.03;;;6.35;100.00
19576;BME280;41589;51.196;7.074;2023-01-10T04:29:54;98928.19;;;6.28;100.00
19576;BME280;41589;51.196;7.074;2023-01-10T04:34:55;98924.69;;;6.24;100.00
19576;BME280;41589;51.196;7.074;2023-01-10T04:39:55;98923.03;;;6.27;100.00
19576;BME280;41589;51.196;7.074;2023-01-10T04:44:55;98936.13;;;6.30;100.00
19576;BME280;41589;51.196;7.074;2023-01-10T04:49:56;98941.13;;;6.38;100.00
19576;BME280;41589;51.196;7.074;2023-01-10T04:54:56;98945.50;;;6.39;100.00
19576;BME280;41589;51.196;7.074;2023-01-10T04:59:56;98949.41;;;6.42;100.00
19576;BME280;41589;51.196;7.074;2023-01-10T05:04:57;98954.94;;;6.46;100.00
19576;BME280;41589;51.196;7.074;2023-01-10T05:09:57;98952.81;;;6.50;100.00
19576;BME280;41589;51.196;7.074;2023-01-10T05:14:57;98959.81;;;6.58;100.00
19576;BME280;41589;51.196;7.074;2023-01-10T05:19:58;98968.25;;;6.54;100.00
19576;BME280;41589;51.196;7.074;2023-01-10T05:24:58;98975.19;;;6.66;100.00
19576;BME280;41589;51.196;7.074;2023-01-10T05:29:59;98990.47;;;6.61;100.00
19576;BME280;41589;51.196;7.074;2023-01-10T05:34:59;98987.44;;;6.56;100.00
19576;BME280;41589;51.196;7.074;2023-01-10T05:39:59;98983.97;;;6.64;100.00
19576;BME280;41589;51.196;7.074;2023-01-10T05:45:00;98988.63;;;6.71;100.00
19576;BME280;41589;51.196;7.074;2023-01-10T05:50:05;99002.16;;;6.73;100.00
19576;BME280;41589;51.196;7.074;2023-01-10T05:55:07;99004.00;;;6.63;100.00
19576;BME280;41589;51.196;7.074;2023-01-10T06:00:08;99014.75;;;6.64;100.00
19576;BME280;41589;51.196;7.074;2023-01-10T06:05:17;99010.66;;;6.69;100.00
19576;BME280;41589;51.196;7.074;2023-01-10T06:10:24;99010.88;;;6.75;100.00
19576;BME280;41589;51.196;7.074;2023-01-10T06:15:24;99038.53;;;6.73;100.00
19576;BME280;41589;51.196;7.074;2023-01-10T06:20:24;99040.03;;;6.77;100.00
19576;BME280;41589;51.196;7.074;2023-01-10T06:25:25;99049.53;;;6.80;100.00
19576;BME280;41589;51.196;7.074;2023-01-10T06:30:29;99058.16;;;6.85;100.00
19576;BME280;41589;51.196;7.074;2023-01-10T06:35:29;99072.97;;;6.86;100.00
19576;BME280;41589;51.196;7.074;2023-01-10T06:40:30;99068.78;;;6.78;100.00
19576;BME280;41589;51.196;7.074;2023-01-10T06:45:30;99088.44;;;6.74;100.00
19576;BME280;41589;51.196;7.074;2023-01-10T06:50:31;99097.63;;;6.75;100.00
19576;BME280;41589;51.196;7.074;2023-01-10T06:55:31;99097.28;;;6.73;100.00
19576;BME280;41589;51.196;7.074;2023-01-10T07:00:32;99109.00;;;6.67;100.00
19576;BME280;41589;51.196;7.074;2023-01-10T07:05:32;99103.66;;;6.73;100.00
19576;BME280;41589;51.196;7.074;2023-01-10T07:10:33;99105.59;;;6.76;100.00
19576;BME280;41589;51.196;7.074;2023-01-10T07:15:33;99127.69;;;6.71;100.00
19576;BME280;41589;51.196;7.074;2023-01-10T07:20:34;99134.53;;;6.70;100.00
19576;BME280;41589;51.196;7.074;2023-01-10T07:25:40;99135.91;;;6.61;100.00
19576;BME280;41589;51.196;7.074;2023-01-10T07:30:40;99134.41;;;6.73;100.00
19576;BME280;41589;51.196;7.074;2023-01-10T07:35:40;99146.06;;;6.72;100.00
19576;BME280;41589;51.196;7.074;2023-01-10T07:40:44;99153.50;;;6.78;100.00
19576;BME280;41589;51.196;7.074;2023-01-10T07:45:44;99170.00;;;6.73;100.00
19576;BME280;41589;51.196;7.074;2023-01-10T07:50:47;99160.47;;;6.70;100.00
19576;BME280;41589;51.196;7.074;2023-01-10T07:55:47;99165.13;;;6.77;100.00
19576;BME280;41589;51.196;7.074;2023-01-10T08:00:48;99175.16;;;6.74;100.00
19576;BME280;41589;51.196;7.074;2023-01-10T08:05:56;99181.00;;;6.63;100.00
19576;BME280;41589;51.196;7.074;2023-01-10T08:10:57;99191.44;;;6.79;100.00
19576;BME280;41589;51.196;7.074;2023-01-10T08:16:02;99199.75;;;6.83;100.00
19576;BME280;41589;51.196;7.074;2023-01-10T08:21:06;99208.47;;;6.85;100.00
19576;BME280;41589;51.196;7.074;2023-01-10T08:26:06;99208.47;;;6.85;100.00
19576;BME280;41589;51.196;7.074;2023-01-10T08:31:07;99209.56;;;6.91;100.00
19576;BME280;41589;51.196;7.074;2023-01-10T08:36:16;99215.25;;;6.87;100.00
19576;BME280;41589;51.196;7.074;2023-01-10T08:41:21;99218.03;;;6.87;100.00
19576;BME280;41589;51.196;7.074;2023-01-10T08:46:24;99214.53;;;6.83;100.00
19576;BME280;41589;51.196;7.074;2023-01-10T08:51:27;99222.47;;;6.85;100.00
19576;BME280;41589;51.196;7.074;2023-01-10T08:56:28;99221.88;;;6.93;100.00
19576;BME280;41589;51.196;7.074;2023-01-10T09:01:31;99235.81;;;6.97;100.00
19576;BME280;41589;51.196;7.074;2023-01-10T09:06:31;99222.41;;;7.05;100.00
19576;BME280;41589;51.196;7.074;2023-01-10T09:11:31;99220.59;;;6.98;100.00
19576;BME280;41589;51.196;7.074;2023-01-10T09:16:32;99238.50;;;7.01;100.00
19576;BME280;41589;51.196;7.074;2023-01-10T09:21:32;99230.19;;;7.13;100.00
19576;BME280;41589;51.196;7.074;2023-01-10T09:26:33;99238.44;;;7.20;100.00
19576;BME280;41589;51.196;7.074;2023-01-10T09:31:33;99239.13;;;7.41;100.00
19576;BME280;41589;51.196;7.074;2023-01-10T09:36:34;99247.44;;;7.44;100.00
19576;BME280;41589;51.196;7.074;2023-01-10T09:41:50;99247.53;;;7.41;100.00
19576;BME280;41589;51.196;7.074;2023-01-10T09:47:23;99240.59;;;7.45;100.00
19576;BME280;41589;51.196;7.074;2023-01-10T09:52:32;99252.78;;;7.39;100.00
19576;BME280;41589;51.196;7.074;2023-01-10T09:57:37;99251.47;;;7.43;100.00
19576;BME280;41589;51.196;7.074;2023-01-10T10:02:43;99253.63;;;7.68;100.00
19576;BME280;41589;51.196;7.074;2023-01-10T10:07:50;99262.41;;;7.70;100.00
19576;BME280;41589;51.196;7.074;2023-01-10T10:29:25;99243.28;;;7.81;100.00
19576;BME280;41589;51.196;7.074;2023-01-10T10:34:39;99240.81;;;7.83;100.00
19576;BME280;41589;51.196;7.074;2023-01-10T10:39:46;99232.81;;;7.98;100.00
19576;BME280;41589;51.196;7.074;2023-01-10T10:45:17;99238.84;;;7.97;100.00
19576;BME280;41589;51.196;7.074;2023-01-10T10:50:31;99243.38;;;8.07;100.00
19576;BME280;41589;51.196;7.074;2023-01-10T10:55:36;99240.22;;;8.05;100.00
19576;BME280;41589;51.196;7.074;2023-01-10T11:00:39;99220.66;;;8.18;99.84
19576;BME280;41589;51.196;7.074;2023-01-10T11:05:45;99202.41;;;8.26;100.00
19576;BME280;41589;51.196;7.074;2023-01-10T11:10:52;99196.88;;;8.64;100.00
19576;BME280;41589;51.196;7.074;2023-01-10T11:15:56;99199.78;;;8.73;100.00
19576;BME280;41589;51.196;7.074;2023-01-10T11:20:59;99198.56;;;8.74;100.00
19576;BME280;41589;51.196;7.074;2023-01-10T11:26:01;99192.94;;;8.74;98.86
19576;BME280;41589;51.196;7.074;2023-01-10T11:31:03;99184.84;;;8.89;99.97
19576;BME280;41589;51.196;7.074;2023-01-10T11:36:06;99185.09;;;8.94;99.75
19576;BME280;41589;51.196;7.074;2023-01-10T11:46:19;99188.13;;;8.87;96.73
19576;BME280;41589;51.196;7.074;2023-01-10T11:51:26;99173.50;;;8.80;96.67
19576;BME280;41589;51.196;7.074;2023-01-10T11:56:33;99185.06;;;8.82;96.92
19576;BME280;41589;51.196;7.074;2023-01-10T12:07:05;99157.31;;;9.09;97.79
19576;BME280;41589;51.196;7.074;2023-01-10T12:12:18;99159.22;;;9.12;97.33
19576;BME280;41589;51.196;7.074;2023-01-10T12:22:24;99154.16;;;9.20;95.58
19576;BME280;41589;51.196;7.074;2023-01-10T12:27:30;99144.72;;;9.14;94.17
19576;BME280;41589;51.196;7.074;2023-01-10T12:32:45;99149.91;;;9.15;94.17
19576;BME280;41589;51.196;7.074;2023-01-10T12:43:43;99145.13;;;9.25;94.32
19576;BME280;41589;51.196;7.074;2023-01-10T12:49:11;99135.31;;;9.42;95.54
19576;BME280;41589;51.196;7.074;2023-01-10T12:54:26;99133.09;;;9.37;91.67
19576;BME280;41589;51.196;7.074;2023-01-10T12:59:33;99109.38;;;9.38;90.29
19576;BME280;41589;51.196;7.074;2023-01-10T13:04:38;99115.19;;;9.44;89.89
19576;BME280;41589;51.196;7.074;2023-01-10T13:09:43;99109.38;;;9.38;88.78
19576;BME280;41589;51.196;7.074;2023-01-10T13:14:52;99091.34;;;9.26;87.58
19576;BME280;41589;51.196;7.074;2023-01-10T13:20:37;99079.06;;;9.33;90.37
19576;BME280;41589;51.196;7.074;2023-01-10T13:25:52;99084.34;;;9.31;89.95
19576;BME280;41589;51.196;7.074;2023-01-10T13:30:59;99083.31;;;9.38;87.56
19576;BME280;41589;51.196;7.074;2023-01-10T13:36:09;99080.50;;;9.38;87.53
19576;BME280;41589;51.196;7.074;2023-01-10T13:41:11;99085.59;;;9.30;85.81
19576;BME280;41589;51.196;7.074;2023-01-10T13:46:38;99082.13;;;9.26;85.88
19576;BME280;41589;51.196;7.074;2023-01-10T13:57:54;99068.47;;;9.03;86.09
19576;BME280;41589;51.196;7.074;2023-01-10T14:02:55;99066.34;;;9.07;83.83
19576;BME280;41589;51.196;7.074;2023-01-10T14:07:56;99054.66;;;9.08;84.36
19576;BME280;41589;51.196;7.074;2023-01-10T14:13:13;99049.63;;;9.03;82.71
19576;BME280;41589;51.196;7.074;2023-01-10T14:18:22;99045.38;;;8.98;83.42
19576;BME280;41589;51.196;7.074;2023-01-10T14:23:42;99036.81;;;9.02;84.58
19576;BME280;41589;51.196;7.074;2023-01-10T14:28:48;99022.91;;;8.98;83.18
19576;BME280;41589;51.196;7.074;2023-01-10T14:33:55;99025.72;;;8.98;82.62
19576;BME280;41589;51.196;7.074;2023-01-10T14:39:03;99006.31;;;8.91;82.23
19576;BME280;41589;51.196;7.074;2023-01-10T14:44:13;99008.25;;;8.82;81.84
19576;BME280;41589;51.196;7.074;2023-01-10T14:49:47;98995.78;;;8.83;82.43
19576;BME280;41589;51.196;7.074;2023-01-10T14:55:08;98995.00;;;8.82;81.85
19576;BME280;41589;51.196;7.074;2023-01-10T15:00:14;98982.72;;;8.67;80.97
19576;BME280;41589;51.196;7.074;2023-01-10T15:05:26;98982.06;;;8.63;81.80
19576;BME280;41589;51.196;7.074;2023-01-10T15:10:31;98969.38;;;8.58;78.98
19576;BME280;41589;51.196;7.074;2023-01-10T15:15:36;98985.41;;;8.58;79.03
19576;BME280;41589;51.196;7.074;2023-01-10T15:20:38;98973.78;;;8.47;78.49
19576;BME280;41589;51.196;7.074;2023-01-10T15:25:39;98975.13;;;8.55;79.23
19576;BME280;41589;51.196;7.074;2023-01-10T15:30:42;98964.13;;;8.48;78.83
19576;BME280;41589;51.196;7.074;2023-01-10T15:35:46;98958.19;;;8.46;78.17
19576;BME280;41589;51.196;7.074;2023-01-10T15:40:56;98941.25;;;8.36;78.68
19576;BME280;41589;51.196;7.074;2023-01-10T15:46:02;98933.19;;;8.38;78.90
19576;BME280;41589;51.196;7.074;2023-01-10T15:51:15;98920.94;;;8.45;80.26
19576;BME280;41589;51.196;7.074;2023-01-10T15:56:27;98920.38;;;8.37;78.29
19576;BME280;41589;51.196;7.074;2023-01-10T16:01:33;98906.69;;;8.39;78.93
19576;BME280;41589;51.196;7.074;2023-01-10T16:06:35;98890.19;;;8.41;79.20
19576;BME280;41589;51.196;7.074;2023-01-10T16:11:49;98891.78;;;8.43;81.85
19576;BME280;41589;51.196;7.074;2023-01-10T16:17:09;98877.41;;;8.40;79.80
19576;BME280;41589;51.196;7.074;2023-01-10T16:22:15;98877.31;;;8.44;81.15
19576;BME280;41589;51.196;7.074;2023-01-10T16:27:17;98861.63;;;8.34;79.71
19576;BME280;41589;51.196;7.074;2023-01-10T16:32:17;98868.47;;;8.20;80.79
19576;BME280;41589;51.196;7.074;2023-01-10T16:37:18;98858.16;;;8.17;81.35
19576;BME280;41589;51.196;7.074;2023-01-10T16:42:19;98850.44;;;8.08;81.56
19576;BME280;41589;51.196;7.074;2023-01-10T16:47:37;98858.97;;;8.05;81.83
19576;BME280;41589;51.196;7.074;2023-01-10T16:52:38;98847.44;;;8.03;83.44
19576;BME280;41589;51.196;7.074;2023-01-10T16:57:38;98828.28;;;8.01;83.15
19576;BME280;41589;51.196;7.074;2023-01-10T17:02:43;98827.59;;;7.97;83.75
19576;BME280;41589;51.196;7.074;2023-01-10T17:07:43;98817.63;;;7.96;85.61
19576;BME280;41589;51.196;7.074;2023-01-10T17:12:44;98816.97;;;7.79;84.34
19576;BME280;41589;51.196;7.074;2023-01-10T17:17:45;98822.38;;;7.74;84.54
19576;BME280;41589;51.196;7.074;2023-01-10T17:22:46;98812.19;;;7.67;84.91
19576;BME280;41589;51.196;7.074;2023-01-10T17:27:46;98832.38;;;7.62;85.38
19576;BME280;41589;51.196;7.074;2023-01-10T17:32:47;98823.41;;;7.67;86.54
19576;BME280;41589;51.196;7.074;2023-01-10T17:37:47;98809.50;;;7.64;86.11
19576;BME280;41589;51.196;7.074;2023-01-10T17:42:48;98793.94;;;7.63;86.55
19576;BME280;41589;51.196;7.074;2023-01-10T17:47:48;98776.81;;;7.48;86.32
19576;BME280;41589;51.196;7.074;2023-01-10T17:52:50;98783.44;;;7.41;86.49
19576;BME280;41589;51.196;7.074;2023-01-10T17:57:51;98774.13;;;7.44;86.72
19576;BME280;41589;51.196;7.074;2023-01-10T18:02:51;98765.97;;;7.37;87.35
19576;BME280;41589;51.196;7.074;2023-01-10T18:07:52;98760.72;;;7.01;95.89
19576;BME280;41589;51.196;7.074;2023-01-10T18:12:52;98750.19;;;6.80;99.96
19576;BME280;41589;51.196;7.074;2023-01-10T18:17:52;98750.28;;;6.63;100.00
19576;BME280;41589;51.196;7.074;2023-01-10T18:22:53;98744.34;;;6.61;100.00
19576;BME280;41589;51.196;7.074;2023-01-10T18:28:11;98728.91;;;6.57;100.00
19576;BME280;41589;51.196;7.074;2023-01-10T18:33:12;98729.78;;;6.54;100.00
19576;BME280;41589;51.196;7.074;2023-01-10T18:38:12;98726.19;;;6.53;100.00
19576;BME280;41589;51.196;7.074;2023-01-10T18:43:13;98722.28;;;6.51;100.00
19576;BME280;41589;51.196;7.074;2023-01-10T18:48:14;98709.44;;;6.53;100.00
19576;BME280;41589;51.196;7.074;2023-01-10T18:53:16;98695.88;;;6.52;100.00
19576;BME280;41589;51.196;7.074;2023-01-10T18:58:18;98705.63;;;6.47;100.00
19576;BME280;41589;51.196;7.074;2023-01-10T19:03:23;98693.44;;;6.54;100.00
19576;BME280;41589;51.196;7.074;2023-01-10T19:08:23;98694.00;;;6.61;100.00
19576;BME280;41589;51.196;7.074;2023-01-10T19:13:24;98673.19;;;6.62;100.00
19576;BME280;41589;51.196;7.074;2023-01-10T19:18:25;98684.38;;;6.62;100.00
19576;BME280;41589;51.196;7.074;2023-01-10T19:23:26;98670.28;;;6.53;100.00
19576;BME280;41589;51.196;7.074;2023-01-10T19:28:27;98659.22;;;6.50;100.00
19576;BME280;41589;51.196;7.074;2023-01-10T19:33:28;98646.56;;;6.58;100.00
19576;BME280;41589;51.196;7.074;2023-01-10T19:38:29;98643.78;;;6.58;100.00
19576;BME280;41589;51.196;7.074;2023-01-10T19:43:29;98633.59;;;6.51;100.00
19576;BME280;41589;51.196;7.074;2023-01-10T19:48:30;98640.66;;;6.56;100.00
19576;BME280;41589;51.196;7.074;2023-01-10T19:53:39;98643.09;;;6.54;100.00
19576;BME280;41589;51.196;7.074;2023-01-10T19:58:41;98638.75;;;6.65;100.00
19576;BME280;41589;51.196;7.074;2023-01-10T20:03:42;98633.94;;;6.66;100.00
19576;BME280;41589;51.196;7.074;2023-01-10T20:08:46;98630.13;;;6.60;100.00
19576;BME280;41589;51.196;7.074;2023-01-10T20:13:47;98637.41;;;6.57;100.00
19576;BME280;41589;51.196;7.074;2023-01-10T20:18:50;98633.06;;;6.56;100.00
19576;BME280;41589;51.196;7.074;2023-01-10T20:23:51;98622.63;;;6.70;100.00
19576;BME280;41589;51.196;7.074;2023-01-10T20:28:52;98625.56;;;6.66;100.00
19576;BME280;41589;51.196;7.074;2023-01-10T20:33:57;98608.66;;;6.70;100.00
19576;BME280;41589;51.196;7.074;2023-01-10T20:38:58;98618.41;;;6.65;100.00
19576;BME280;41589;51.196;7.074;2023-01-10T20:44:02;98610.22;;;6.71;100.00
19576;BME280;41589;51.196;7.074;2023-01-10T20:49:03;98606.19;;;6.72;100.00
19576;BME280;41589;51.196;7.074;2023-01-10T20:54:05;98595.13;;;6.68;100.00
19576;BME280;41589;51.196;7.074;2023-01-10T20:59:07;98608.06;;;6.75;100.00
19576;BME280;41589;51.196;7.074;2023-01-10T21:04:07;98589.72;;;6.74;100.00
19576;BME280;41589;51.196;7.074;2023-01-10T21:09:29;98604.16;;;6.72;100.00
19576;BME280;41589;51.196;7.074;2023-01-10T21:14:35;98573.66;;;6.65;100.00
19576;BME280;41589;51.196;7.074;2023-01-10T21:19:43;98578.88;;;6.76;100.00
19576;BME280;41589;51.196;7.074;2023-01-10T21:24:50;98557.50;;;6.82;100.00
19576;BME280;41589;51.196;7.074;2023-01-10T21:29:53;98574.25;;;6.94;100.00
19576;BME280;41589;51.196;7.074;2023-01-10T21:34:56;98560.06;;;6.89;100.00
19576;BME280;41589;51.196;7.074;2023-01-10T21:39:58;98553.09;;;6.93;100.00
19576;BME280;41589;51.196;7.074;2023-01-10T21:45:00;98554.31;;;6.92;100.00
19576;BME280;41589;51.196;7.074;2023-01-10T21:50:26;98550.19;;;6.97;100.00
19576;BME280;41589;51.196;7.074;2023-01-10T21:55:32;98544.25;;;6.95;100.00
19576;BME280;41589;51.196;7.074;2023-01-10T22:00:38;98545.09;;;7.05;100.00
19576;BME280;41589;51.196;7.074;2023-01-10T22:05:47;98528.31;;;7.05;100.00
19576;BME280;41589;51.196;7.074;2023-01-10T22:10:51;98525.88;;;7.07;100.00
19576;BME280;41589;51.196;7.074;2023-01-10T22:16:03;98529.44;;;7.07;100.00
19576;BME280;41589;51.196;7.074;2023-01-10T22:21:09;98528.84;;;7.12;100.00
19576;BME280;41589;51.196;7.074;2023-01-10T22:26:17;98512.06;;;7.12;100.00
19576;BME280;41589;51.196;7.074;2023-01-10T22:31:23;98530.81;;;7.24;100.00
19576;BME280;41589;51.196;7.074;2023-01-10T22:36:26;98507.97;;;7.26;100.00
19576;BME280;41589;51.196;7.074;2023-01-10T22:41:32;98505.22;;;7.35;100.00
19576;BME280;41589;51.196;7.074;2023-01-10T22:46:36;98497.94;;;7.38;100.00
19576;BME280;41589;51.196;7.074;2023-01-10T22:51:39;98488.50;;;7.44;100.00
19576;BME280;41589;51.196;7.074;2023-01-10T22:56:46;98480.63;;;7.52;100.00
19576;BME280;41589;51.196;7.074;2023-01-10T23:01:49;98468.97;;;7.53;100.00
19576;BME280;41589;51.196;7.074;2023-01-10T23:06:52;98464.44;;;7.56;100.00
19576;BME280;41589;51.196;7.074;2023-01-10T23:12:02;98451.88;;;7.61;100.00
19576;BME280;41589;51.196;7.074;2023-01-10T23:17:08;98449.41;;;7.63;100.00
19576;BME280;41589;51.196;7.074;2023-01-10T23:22:29;98454.84;;;7.66;100.00
19576;BME280;41589;51.196;7.074;2023-01-10T23:27:32;98452.84;;;7.67;100.00
19576;BME280;41589;51.196;7.074;2023-01-10T23:32:33;98446.97;;;7.74;100.00
19576;BME280;41589;51.196;7.074;2023-01-10T23:37:40;98426.38;;;7.68;100.00
19576;BME280;41589;51.196;7.074;2023-01-10T23:42:46;98426.72;;;7.70;100.00
19576;BME280;41589;51.196;7.074;2023-01-10T23:47:47;98416.63;;;7.72;100.00
19576;BME280;41589;51.196;7.074;2023-01-10T23:52:48;98431.25;;;7.76;100.00
19576;BME280;41589;51.196;7.074;2023-01-10T23:57:48;98413.84;;;7.81;100.00
